Time;durP1;ratioP1;P1;durP2;ratioP2;P2;SDS_P1;SDS_P2;PMS_P1;PMS_P2;Temp;Humidity;BMP_temperature;BMP_pressure;BME280_temperature;BME280_humidity;BME280_pressure;Samples;Min_cycle;Max_cycle;Signal;HPM_P1;HPM_P2
2023/06/14 00:00:34;;;;;;;8.20;4.50;;;;;;;17.91;83.42;96146.03;5113088;28;20047;-66
2023/06/14 00:03:01;;;;;;;8.45;4.47;;;;;;;17.91;83.85;96140.75;5113047;28;20047;-67
2023/06/14 00:05:29;;;;;;;5.35;4.85;;;;;;;17.90;84.49;96137.25;5113796;28;20054;-67
2023/06/14 00:07:56;;;;;;;6.65;4.45;;;;;;;17.88;84.41;96133.03;5116637;28;20053;-65
2023/06/14 00:10:23;;;;;;;7.45;4.40;;;;;;;17.85;83.84;96135.91;5116650;28;20075;-66
2023/06/14 00:12:52;;;;;;;6.25;4.82;;;;;;;17.85;84.82;96133.25;5116544;28;20558;-66
2023/06/14 00:15:19;;;;;;;7.35;4.68;;;;;;;17.85;85.12;96126.13;5116592;28;20528;-66
2023/06/14 00:17:47;;;;;;;5.85;4.45;;;;;;;17.80;85.27;96121.22;5116628;28;20058;-67
2023/06/14 00:20:14;;;;;;;8.48;4.97;;;;;;;17.79;85.88;96119.50;5116588;28;20047;-66
2023/06/14 00:22:41;;;;;;;4.82;4.43;;;;;;;17.76;86.37;96119.72;5116469;28;20047;-68
2023/06/14 00:25:08;;;;;;;7.10;4.10;;;;;;;17.74;85.68;96116.38;5116382;28;20039;-68
2023/06/14 00:27:35;;;;;;;7.05;5.00;;;;;;;17.71;85.58;96113.94;5116343;28;20051;-66
2023/06/14 00:30:05;;;;;;;9.15;4.85;;;;;;;17.70;85.63;96111.41;5116399;28;20172;-65
2023/06/14 00:32:32;;;;;;;5.78;4.82;;;;;;;17.69;86.07;96110.56;5116041;28;20044;-68
2023/06/14 00:34:59;;;;;;;6.80;4.93;;;;;;;17.68;86.48;96112.38;5116467;28;20451;-66
2023/06/14 00:37:26;;;;;;;5.13;4.50;;;;;;;17.66;86.11;96103.72;5116076;28;20485;-67
2023/06/14 00:39:53;;;;;;;4.85;4.45;;;;;;;17.65;85.96;96109.97;5116317;28;20048;-67
2023/06/14 00:42:26;;;;;;;13.73;4.78;;;;;;;17.62;86.48;96102.25;5116021;28;20058;-67
2023/06/14 00:44:54;;;;;;;9.13;5.10;;;;;;;17.60;86.87;96101.50;5115993;28;20097;-68
2023/06/14 00:47:23;;;;;;;9.35;5.40;;;;;;;17.60;87.34;96100.66;5097749;28;20073;-66
2023/06/14 00:49:51;;;;;;;5.32;4.82;;;;;;;17.59;87.40;96099.84;5116024;28;20397;-66
2023/06/14 00:52:19;;;;;;;6.35;4.90;;;;;;;17.59;87.31;96097.19;5115988;28;20051;-66
2023/06/14 00:54:46;;;;;;;7.47;4.97;;;;;;;17.55;86.94;96099.19;5115837;28;20044;-67
2023/06/14 00:57:14;;;;;;;4.85;4.45;;;;;;;17.55;87.00;96096.56;5115735;28;20040;-67
2023/06/14 00:59:44;;;;;;;4.93;4.43;;;;;;;17.49;86.41;96094.34;5115678;28;20047;-65
2023/06/14 01:02:12;;;;;;;5.50;4.72;;;;;;;17.42;84.96;96099.28;5115819;28;20051;-66
2023/06/14 01:04:41;;;;;;;7.05;4.25;;;;;;;17.41;85.46;96091.44;5115629;28;20054;-67
2023/06/14 01:07:14;;;;;;;8.38;4.43;;;;;;;17.46;86.29;96091.13;5115522;28;20048;-67
2023/06/14 01:09:55;;;;;;;7.35;5.00;;;;;;;17.47;87.01;96091.00;5115554;28;20503;-66
2023/06/14 01:12:28;;;;;;;4.20;3.85;;;;;;;17.36;86.31;96098.84;5115682;28;20048;-66
2023/06/14 01:14:58;;;;;;;7.45;4.80;;;;;;;17.26;86.68;96096.91;5115526;28;20117;-67
2023/06/14 01:17:26;;;;;;;7.05;5.10;;;;;;;17.26;86.81;96099.53;5114672;28;20090;-66
2023/06/14 01:19:57;;;;;;;7.45;4.20;;;;;;;17.25;87.93;96095.19;5115344;28;20113;-67
2023/06/14 01:22:26;;;;;;;7.88;4.90;;;;;;;17.20;87.70;96102.63;5115245;28;20134;-68
2023/06/14 01:24:55;;;;;;;7.80;4.55;;;;;;;17.18;87.58;96100.09;5115317;28;20131;-68
2023/06/14 01:27:28;;;;;;;5.20;4.72;;;;;;;17.17;88.24;96093.13;5115416;28;20055;-68
2023/06/14 01:29:57;;;;;;;8.40;4.65;;;;;;;17.19;88.18;96095.66;5115139;28;20096;-66
2023/06/14 01:32:27;;;;;;;4.95;4.32;;;;;;;17.18;87.59;96091.31;5114777;28;20554;-67
2023/06/14 01:34:54;;;;;;;5.43;4.32;;;;;;;17.11;87.17;96098.84;5115205;28;20048;-66
2023/06/14 01:37:22;;;;;;;6.25;4.40;;;;;;;17.13;87.74;96096.09;5115165;28;20047;-67
2023/06/14 01:39:50;;;;;;;7.68;4.68;;;;;;;17.13;87.55;96093.44;5114914;28;20070;-66
2023/06/14 01:42:19;;;;;;;7.28;5.13;;;;;;;17.14;86.66;96098.63;5114840;28;20039;-66
2023/06/14 01:44:48;;;;;;;6.90;4.18;;;;;;;17.14;86.50;96092.50;5114863;28;20048;-67
2023/06/14 01:47:16;;;;;;;6.70;4.18;;;;;;;17.14;87.19;96095.13;5114770;28;20054;-67
2023/06/14 01:49:43;;;;;;;5.88;4.38;;;;;;;17.16;88.06;96093.25;5114682;28;20088;-65
2023/06/14 01:52:10;;;;;;;5.13;4.63;;;;;;;17.17;87.97;96094.91;5114650;28;20048;-68
2023/06/14 01:54:41;;;;;;;6.38;4.25;;;;;;;17.22;88.16;96086.66;5114590;28;20093;-68
2023/06/14 01:57:10;;;;;;;6.20;4.57;;;;;;;17.24;88.14;96087.38;5114631;28;20050;-68
2023/06/14 01:59:38;;;;;;;6.72;4.47;;;;;;;17.26;88.13;96088.13;5114432;28;20092;-67
2023/06/14 02:02:06;;;;;;;6.78;4.22;;;;;;;17.24;88.13;96090.88;5114501;28;20093;-68
2023/06/14 02:04:33;;;;;;;5.00;3.97;;;;;;;17.24;87.82;96090.88;5114400;28;20050;-66
2023/06/14 02:07:00;;;;;;;5.30;4.32;;;;;;;17.22;88.15;96094.59;5114606;28;20086;-66
2023/06/14 02:09:27;;;;;;;4.72;3.67;;;;;;;17.14;86.96;96095.13;5114460;28;20411;-66
2023/06/14 02:11:54;;;;;;;5.88;4.43;;;;;;;17.04;86.63;96095.75;5114392;28;20090;-67
2023/06/14 02:14:21;;;;;;;6.95;4.10;;;;;;;17.04;86.75;96092.28;5114456;28;20074;-68
2023/06/14 02:16:49;;;;;;;7.03;4.15;;;;;;;16.99;86.43;96094.41;5114166;28;20484;-68
2023/06/14 02:19:17;;;;;;;6.07;3.97;;;;;;;16.90;85.97;96087.97;5114139;28;20066;-65
2023/06/14 02:21:44;;;;;;;7.35;4.22;;;;;;;16.77;86.26;96099.41;5114150;28;20071;-66
2023/06/14 02:24:11;;;;;;;10.68;4.32;;;;;;;16.70;86.39;96084.13;5114105;28;20053;-66
2023/06/14 02:26:39;;;;;;;5.03;3.70;;;;;;;16.70;86.92;96095.50;5114046;28;20048;-67
2023/06/14 02:29:08;;;;;;;7.05;4.20;;;;;;;16.74;87.53;96098.78;5113042;28;20055;-67
2023/06/14 02:31:36;;;;;;;7.72;3.47;;;;;;;16.71;86.98;96097.22;5114124;28;20122;-66
2023/06/14 02:34:05;;;;;;;6.45;3.40;;;;;;;16.64;86.55;96098.56;5113645;28;20131;-66
2023/06/14 02:36:32;;;;;;;5.70;3.92;;;;;;;16.61;86.33;96102.25;5113832;28;20047;-67
2023/06/14 02:38:59;;;;;;;4.78;3.85;;;;;;;16.55;87.25;96100.06;5113863;28;20480;-66
2023/06/14 02:41:26;;;;;;;9.88;3.13;;;;;;;16.49;87.68;96103.09;5113894;28;20047;-67
2023/06/14 02:43:55;;;;;;;5.72;3.78;;;;;;;16.48;88.77;96098.78;5113826;28;20378;-66
2023/06/14 02:46:22;;;;;;;4.20;3.85;;;;;;;16.45;88.83;96102.50;5113745;28;20101;-67
2023/06/14 02:48:50;;;;;;;5.30;3.92;;;;;;;16.43;88.94;96099.09;5113657;28;20048;-66
2023/06/14 02:51:18;;;;;;;4.78;3.78;;;;;;;16.50;88.78;96107.47;5113648;28;20500;-66
2023/06/14 02:53:45;;;;;;;4.50;4.05;;;;;;;16.53;88.61;96112.53;5113732;28;20113;-66
2023/06/14 02:56:13;;;;;;;6.13;4.05;;;;;;;16.57;88.02;96106.09;5113617;28;20040;-66
2023/06/14 02:58:40;;;;;;;4.25;3.85;;;;;;;16.49;87.09;96092.53;5113562;28;20047;-67
2023/06/14 03:01:07;;;;;;;7.07;3.60;;;;;;;16.48;86.69;96109.34;5113554;28;20437;-67
2023/06/14 03:03:35;;;;;;;4.35;3.50;;;;;;;16.40;86.40;96107.22;5113508;28;20142;-66
2023/06/14 03:06:04;;;;;;;5.38;3.80;;;;;;;16.33;86.22;96113.88;5113580;28;20135;-66
2023/06/14 03:08:38;;;;;;;4.60;3.50;;;;;;;16.26;86.56;96116.94;5113635;28;20141;-68
2023/06/14 03:11:06;;;;;;;6.82;3.80;;;;;;;16.18;87.00;96106.06;5113782;28;20054;-66
2023/06/14 03:13:33;;;;;;;17.67;4.82;;;;;;;16.22;86.96;96118.09;5113807;28;20427;-66
2023/06/14 03:16:02;;;;;;;7.55;3.90;;;;;;;16.27;87.05;96116.00;5113466;28;20051;-68
2023/06/14 03:18:30;;;;;;;13.07;4.10;;;;;;;16.27;86.91;96125.69;5113488;28;20495;-66
2023/06/14 03:20:57;;;;;;;6.18;3.58;;;;;;;16.30;86.66;96117.56;5113377;28;20057;-67
2023/06/14 03:23:25;;;;;;;7.93;4.10;;;;;;;16.38;86.57;96123.16;5113432;28;20086;-66
2023/06/14 03:25:53;;;;;;;10.85;4.03;;;;;;;16.35;86.26;96125.19;5113401;28;20075;-68
2023/06/14 03:28:20;;;;;;;5.20;4.03;;;;;;;16.45;86.03;96128.88;5113286;28;20051;-68
2023/06/14 03:30:48;;;;;;;6.43;3.88;;;;;;;16.61;85.62;96133.09;5113320;28;20546;-67
2023/06/14 03:33:15;;;;;;;6.50;3.50;;;;;;;16.76;84.94;96131.19;5113048;28;20052;-67
2023/06/14 03:35:42;;;;;;;3.83;3.53;;;;;;;16.89;84.02;96131.19;5113148;28;20044;-66
2023/06/14 03:38:09;;;;;;;5.78;3.30;;;;;;;17.15;84.06;96139.94;5113187;28;20499;-67
2023/06/14 03:40:36;;;;;;;5.95;3.08;;;;;;;17.46;81.51;96134.25;5114267;28;20127;-67
2023/06/14 03:43:04;;;;;;;3.53;2.60;;;;;;;17.80;78.61;96139.72;5117416;28;20446;-66
2023/06/14 03:45:31;;;;;;;12.88;2.65;;;;;;;18.07;77.04;96129.84;5117273;28;20497;-65
2023/06/14 03:48:00;;;;;;;4.00;2.97;;;;;;;18.34;75.69;96136.69;5117237;28;20557;-65
2023/06/14 03:50:28;;;;;;;4.10;2.80;;;;;;;18.76;74.15;96136.16;5117060;28;20101;-65
2023/06/14 03:52:55;;;;;;;3.72;2.90;;;;;;;19.16;72.58;96136.66;5117062;28;20475;-66
2023/06/14 03:55:25;;;;;;;9.98;2.95;;;;;;;19.53;70.31;96139.00;5117258;28;20048;-67
2023/06/14 03:57:52;;;;;;;8.88;3.03;;;;;;;19.89;69.74;96137.91;5116949;28;20059;-67
2023/06/14 04:00:20;;;;;;;7.85;2.50;;;;;;;20.16;67.74;96139.28;5116859;28;20533;-66
2023/06/14 04:02:47;;;;;;;4.32;2.25;;;;;;;20.44;66.82;96143.13;5116875;28;20087;-66
2023/06/14 04:05:16;;;;;;;4.00;2.72;;;;;;;20.72;66.01;96147.91;5116814;28;20043;-66
2023/06/14 04:07:44;;;;;;;6.60;2.42;;;;;;;21.04;64.36;96146.13;5116757;28;20048;-67
2023/06/14 04:10:13;;;;;;;2.10;1.90;;;;;;;21.38;63.21;96147.63;5116693;28;20146;-67
2023/06/14 04:12:40;;;;;;;2.72;2.50;;;;;;;21.64;62.56;96150.63;5116846;28;20504;-67
2023/06/14 04:15:09;;;;;;;4.72;2.30;;;;;;;21.91;61.08;96145.66;5117009;28;20112;-67
2023/06/14 04:17:38;;;;;;;3.72;2.30;;;;;;;22.13;60.16;96147.22;5116739;28;20079;-66
2023/06/14 04:20:06;;;;;;;8.10;2.38;;;;;;;;;;5116706;28;20454;-67
2023/06/14 04:22:33;;;;;;;2.22;2.03;;;;;;;22.46;58.67;96157.56;5116600;28;20082;-66
2023/06/14 04:25:01;;;;;;;2.47;2.22;;;;;;;22.68;57.64;96156.44;5116433;28;20054;-67
2023/06/14 04:27:30;;;;;;;6.70;2.38;;;;;;;23.06;56.41;96156.44;5116373;28;20382;-66
2023/06/14 04:29:59;;;;;;;2.70;2.38;;;;;;;23.42;55.01;96154.91;5116353;28;20055;-67
2023/06/14 04:32:27;;;;;;;4.32;2.40;;;;;;;23.76;54.43;96158.78;5116087;28;20047;-66
2023/06/14 04:34:56;;;;;;;4.32;2.70;;;;;;;24.00;53.67;96160.03;5116383;28;20047;-67
2023/06/14 04:37:23;;;;;;;10.35;2.45;;;;;;;24.31;53.17;96165.84;5116327;28;20083;-67
2023/06/14 04:39:51;;;;;;;5.95;2.40;;;;;;;24.57;52.02;96173.06;5116110;28;20051;-67
2023/06/14 04:42:20;;;;;;;2.78;2.25;;;;;;;24.77;51.74;96167.50;5116204;28;20131;-66
2023/06/14 04:44:48;;;;;;;6.32;2.33;;;;;;;24.90;51.29;96177.00;5115971;28;20492;-67
2023/06/14 04:47:16;;;;;;;4.43;2.50;;;;;;;24.97;51.23;96178.03;5115922;28;20603;-67
2023/06/14 04:49:44;;;;;;;2.33;2.13;;;;;;;25.30;50.82;96182.72;5115977;28;20055;-66
2023/06/14 04:52:13;;;;;;;3.75;2.63;;;;;;;25.65;48.88;96188.09;5115005;28;20066;-67
2023/06/14 04:54:42;;;;;;;6.45;2.50;;;;;;;25.98;49.32;96186.31;5115954;28;20054;-67
2023/06/14 04:57:14;;;;;;;7.32;2.33;;;;;;;26.33;48.84;96190.75;5115757;28;20134;-66
2023/06/14 04:59:41;;;;;;;5.55;2.30;;;;;;;26.69;47.73;96192.25;5115903;28;20055;-66
2023/06/14 05:02:08;;;;;;;3.17;2.28;;;;;;;26.92;46.52;96191.56;5115680;28;20048;-66
2023/06/14 05:04:39;;;;;;;3.67;2.20;;;;;;;26.86;47.05;96182.34;5115593;28;20215;-66
2023/06/14 05:07:07;;;;;;;4.32;2.20;;;;;;;26.69;47.39;96182.38;5115669;28;20051;-66
2023/06/14 05:09:36;;;;;;;3.95;2.25;;;;;;;26.51;47.30;96192.44;5115528;28;20043;-68
2023/06/14 05:12:04;;;;;;;6.20;2.47;;;;;;;26.24;47.64;96200.59;5115728;28;20485;-67
2023/06/14 05:14:31;;;;;;;2.92;2.63;;;;;;;26.06;47.74;96203.41;5115677;28;20457;-67
2023/06/14 05:16:58;;;;;;;3.35;2.35;;;;;;;25.86;48.00;96204.53;5115402;28;20084;-67
2023/06/14 05:19:25;;;;;;;4.70;2.15;;;;;;;25.72;49.26;96198.00;5115318;28;20058;-68
2023/06/14 05:21:52;;;;;;;4.32;2.40;;;;;;;25.66;48.62;96200.47;5115299;28;20451;-67
2023/06/14 05:24:19;;;;;;;4.90;2.72;;;;;;;25.49;48.72;96206.56;5115357;28;20446;-68
2023/06/14 05:26:48;;;;;;;4.53;2.33;;;;;;;25.36;48.28;96208.84;5115281;28;20044;-68
2023/06/14 05:29:15;;;;;;;5.10;2.60;;;;;;;25.15;49.58;96217.25;5115323;28;20075;-67
2023/06/14 05:31:43;;;;;;;6.43;2.65;;;;;;;24.96;49.54;96213.81;5115248;28;20051;-67
2023/06/14 05:34:10;;;;;;;3.72;2.95;;;;;;;24.80;51.13;96218.00;5114879;28;20482;-66
2023/06/14 05:36:38;;;;;;;3.92;2.75;;;;;;;24.65;51.97;96220.41;5114982;28;20050;-68
2023/06/14 05:39:06;;;;;;;4.85;2.30;;;;;;;24.50;50.33;96227.31;5114982;28;20475;-67
2023/06/14 05:41:33;;;;;;;5.13;2.13;;;;;;;24.44;51.09;96218.91;5115120;28;20043;-67
2023/06/14 05:44:02;;;;;;;6.63;2.55;;;;;;;24.45;52.13;96223.25;5114899;28;20489;-68
2023/06/14 05:46:29;;;;;;;4.15;2.10;;;;;;;24.46;52.24;96224.09;5114867;28;20047;-68
2023/06/14 05:48:57;;;;;;;4.88;2.38;;;;;;;24.40;52.40;96225.53;5114852;28;20511;-68
2023/06/14 05:51:26;;;;;;;2.88;2.40;;;;;;;24.37;52.50;96223.19;5114732;28;20040;-68
2023/06/14 05:53:54;;;;;;;6.22;2.40;;;;;;;24.30;52.01;96232.78;5114836;28;20468;-68
2023/06/14 05:56:21;;;;;;;4.82;2.00;;;;;;;24.36;51.56;96233.00;5114729;28;20048;-68
2023/06/14 05:58:48;;;;;;;3.33;1.80;;;;;;;24.40;50.57;96230.88;5114667;28;20075;-68
2023/06/14 06:01:16;;;;;;;4.60;2.45;;;;;;;24.42;50.79;96233.41;5114512;28;20105;-68
2023/06/14 06:03:46;;;;;;;5.20;2.03;;;;;;;24.41;52.06;96243.25;5114287;28;20044;-65
2023/06/14 06:06:13;;;;;;;2.50;2.08;;;;;;;24.23;50.93;96236.06;5114578;28;20065;-68
2023/06/14 06:08:41;;;;;;;4.43;1.92;;;;;;;24.17;52.04;96234.00;5114463;28;20079;-68
2023/06/14 06:11:08;;;;;;;4.05;2.00;;;;;;;24.06;51.08;96237.72;5114409;28;20043;-66
2023/06/14 06:13:36;;;;;;;4.18;2.17;;;;;;;24.02;52.08;96246.19;5114346;28;20043;-68
2023/06/14 06:16:04;;;;;;;2.60;2.08;;;;;;;24.03;51.38;96251.38;5114247;28;20097;-66
2023/06/14 06:18:33;;;;;;;3.10;2.05;;;;;;;24.16;53.29;96236.81;5114614;28;20047;-68
2023/06/14 06:21:00;;;;;;;1.95;1.85;;;;;;;24.23;52.50;96240.59;5114139;28;20420;-66
2023/06/14 06:23:28;;;;;;;2.38;1.75;;;;;;;24.23;51.08;96243.28;5114204;28;20086;-67
2023/06/14 06:25:54;;;;;;;3.00;1.90;;;;;;;24.15;49.14;96240.50;5114195;28;20139;-68
2023/06/14 06:28:22;;;;;;;2.22;1.80;;;;;;;24.14;50.53;96246.84;5114240;28;20403;-66
2023/06/14 06:41:57;;;;;;;6.82;1.90;;;;;;;24.83;50.53;96246.28;5131788;27;20376;-66
2023/06/14 06:44:25;;;;;;;3.95;2.10;;;;;;;24.77;50.33;96245.06;5131524;28;20130;-66
2023/06/14 06:46:52;;;;;;;4.20;1.70;;;;;;;24.70;49.18;96252.88;5131272;27;20047;-68
2023/06/14 06:49:19;;;;;;;2.10;1.88;;;;;;;24.52;48.87;96254.69;5131246;27;20056;-68
2023/06/14 06:52:00;;;;;;;2.72;1.63;;;;;;;24.47;50.01;96257.84;5131153;28;20112;-66
2023/06/14 06:54:27;;;;;;;2.70;1.63;;;;;;;24.48;50.16;96256.84;5131303;28;20043;-68
2023/06/14 06:56:54;;;;;;;7.38;1.80;;;;;;;24.56;50.42;96254.25;5131320;28;20094;-65
2023/06/14 06:59:23;;;;;;;2.83;1.95;;;;;;;24.58;49.77;96260.28;5131128;27;20047;-68
2023/06/14 07:01:50;;;;;;;2.97;1.80;;;;;;;24.76;50.18;96254.06;5131121;27;20061;-68
2023/06/14 07:04:18;;;;;;;2.35;1.90;;;;;;;24.97;50.97;96245.75;5130951;28;20047;-68
2023/06/14 07:06:45;;;;;;;5.18;2.45;;;;;;;25.09;49.73;96250.84;5130954;27;20043;-67
2023/06/14 07:09:14;;;;;;;7.78;2.13;;;;;;;25.24;49.74;96257.28;5130940;27;20044;-67
2023/06/14 07:11:42;;;;;;;2.22;1.77;;;;;;;25.32;49.42;96263.69;5130665;28;20071;-69
2023/06/14 07:14:09;;;;;;;2.33;2.10;;;;;;;25.39;49.28;96259.38;5130670;28;20082;-68
2023/06/14 07:16:39;;;;;;;5.32;2.10;;;;;;;25.43;47.92;96257.25;5130727;28;20506;-65
2023/06/14 07:19:06;;;;;;;3.67;1.92;;;;;;;25.60;49.08;96255.50;5130646;27;20243;-66
2023/06/14 07:21:33;;;;;;;2.65;1.85;;;;;;;25.63;48.42;96265.03;5130701;28;20075;-67
2023/06/14 07:24:00;;;;;;;3.83;2.17;;;;;;;25.60;48.84;96264.38;5130557;28;20404;-66
2023/06/14 07:26:27;;;;;;;4.57;2.03;;;;;;;25.53;49.23;96260.63;5130606;28;20050;-67
2023/06/14 07:28:54;;;;;;;2.80;2.10;;;;;;;25.52;48.49;96255.44;5130444;28;20054;-67
2023/06/14 07:31:21;;;;;;;5.85;2.28;;;;;;;25.42;47.38;96261.75;5130233;28;20052;-67
2023/06/14 07:33:49;;;;;;;2.38;2.17;;;;;;;25.45;48.13;96257.91;5130334;28;20048;-67
2023/06/14 07:36:17;;;;;;;2.60;2.13;;;;;;;25.59;49.61;96259.16;5130410;28;20130;-68
2023/06/14 07:38:44;;;;;;;3.38;2.47;;;;;;;25.69;50.03;96257.22;5130315;28;20050;-68
2023/06/14 07:41:11;;;;;;;3.53;1.95;;;;;;;25.57;50.26;96253.97;5125966;27;20051;-68
2023/06/14 07:43:38;;;;;;;6.43;2.60;;;;;;;25.07;48.13;96252.84;5116480;28;20082;-66
2023/06/14 07:46:06;;;;;;;7.60;2.47;;;;;;;25.09;49.42;96257.03;5116470;28;20400;-66
2023/06/14 07:48:33;;;;;;;5.97;2.10;;;;;;;25.15;50.66;96254.72;5116639;28;20062;-68
2023/06/14 07:51:01;;;;;;;3.15;2.30;;;;;;;25.10;50.90;96250.69;5116404;28;20492;-67
2023/06/14 07:53:30;;;;;;;3.28;2.47;;;;;;;25.13;51.02;96254.88;5116388;28;20054;-66
2023/06/14 07:55:57;;;;;;;4.32;2.20;;;;;;;25.14;52.08;96251.22;5116331;28;20461;-66
2023/06/14 07:58:25;;;;;;;3.58;2.58;;;;;;;25.23;50.88;96250.25;5116158;28;20404;-65
2023/06/14 08:00:52;;;;;;;2.17;1.95;;;;;;;25.20;51.00;96255.09;5116160;28;20059;-66
2023/06/14 08:03:19;;;;;;;2.30;2.10;;;;;;;25.07;50.63;96256.34;5116108;28;20480;-66
2023/06/14 08:05:46;;;;;;;3.30;2.20;;;;;;;24.92;51.59;96255.25;5116185;28;20131;-66
2023/06/14 08:08:15;;;;;;;4.75;2.25;;;;;;;24.90;51.38;96254.53;5115923;28;20390;-67
2023/06/14 08:10:43;;;;;;;3.15;2.75;;;;;;;24.84;51.18;96256.81;5115939;28;20051;-67
2023/06/14 08:13:10;;;;;;;2.50;1.95;;;;;;;24.84;51.60;96259.47;5115825;28;20044;-68
2023/06/14 08:15:37;;;;;;;2.60;2.40;;;;;;;24.81;52.54;96261.63;5116028;28;20055;-67
2023/06/14 08:18:04;;;;;;;3.83;2.83;;;;;;;24.71;52.25;96259.06;5116002;28;20105;-66
2023/06/14 08:20:31;;;;;;;5.22;2.88;;;;;;;24.65;52.94;96267.69;5115792;28;20044;-69
2023/06/14 08:22:58;;;;;;;3.17;2.38;;;;;;;24.55;53.86;96265.09;5115724;28;20105;-66
2023/06/14 08:25:27;;;;;;;6.70;2.70;;;;;;;24.50;53.54;96270.88;5115852;28;20050;-66
2023/06/14 08:27:54;;;;;;;5.35;3.10;;;;;;;24.42;51.47;96266.31;5115726;28;20121;-67
2023/06/14 08:30:21;;;;;;;3.42;2.78;;;;;;;24.48;51.77;96271.03;5115652;28;20047;-67
2023/06/14 08:32:48;;;;;;;4.13;3.03;;;;;;;24.52;52.52;96270.72;5115744;28;20488;-66
2023/06/14 08:35:15;;;;;;;5.55;2.88;;;;;;;24.74;53.53;96266.75;5115440;28;20043;-66
2023/06/14 08:37:43;;;;;;;2.65;2.45;;;;;;;24.90;52.09;96265.25;5115400;28;20048;-67
2023/06/14 08:40:21;;;;;;;3.20;2.90;;;;;;;24.90;53.43;96258.06;5115204;28;20134;-66
2023/06/14 08:42:54;;;;;;;4.95;3.10;;;;;;;25.13;52.39;96265.56;5115354;28;20059;-66
2023/06/14 08:45:22;;;;;;;5.20;2.78;;;;;;;25.30;50.04;96269.19;5115413;28;20130;-68
2023/06/14 08:47:51;;;;;;;3.22;2.92;;;;;;;25.35;48.94;96271.41;5115277;28;20051;-66
2023/06/14 08:50:21;;;;;;;5.90;2.80;;;;;;;25.67;49.57;96266.41;5115157;28;20134;-68
2023/06/14 08:52:52;;;;;;;4.13;2.65;;;;;;;26.12;50.33;96267.91;5114483;28;20043;-68
2023/06/14 08:55:20;;;;;;;3.78;2.78;;;;;;;26.52;50.45;96278.09;5115109;28;20131;-67
2023/06/14 08:57:49;;;;;;;3.75;2.80;;;;;;;26.83;47.50;96272.06;5115095;28;20553;-66
2023/06/14 09:00:18;;;;;;;3.10;2.78;;;;;;;26.95;48.56;96275.25;5114965;28;20047;-66
2023/06/14 09:02:45;;;;;;;3.35;2.80;;;;;;;27.19;48.56;96267.34;5115116;28;20043;-68
2023/06/14 09:05:13;;;;;;;5.13;2.83;;;;;;;27.17;44.92;96278.25;5115039;28;20404;-67
2023/06/14 09:07:41;;;;;;;4.60;2.90;;;;;;;27.17;47.60;96267.53;5114973;28;20567;-66
2023/06/14 09:10:11;;;;;;;3.58;2.90;;;;;;;27.28;46.25;96274.38;5114884;28;20051;-68
2023/06/14 09:12:39;;;;;;;5.23;3.13;;;;;;;27.34;44.76;96270.19;5114917;28;20048;-67
2023/06/14 09:15:08;;;;;;;3.60;2.90;;;;;;;27.29;45.76;96275.22;5114684;28;20051;-68
2023/06/14 09:17:37;;;;;;;8.57;3.28;;;;;;;27.11;45.88;96276.25;5114601;28;20142;-66
2023/06/14 09:20:09;;;;;;;4.80;3.28;;;;;;;26.87;46.87;96272.53;5114742;28;20454;-67
2023/06/14 09:22:37;;;;;;;3.20;2.95;;;;;;;26.45;45.92;96277.88;5114533;28;20067;-66
2023/06/14 09:25:05;;;;;;;4.78;3.15;;;;;;;25.68;48.19;96274.28;5114512;28;20091;-66
2023/06/14 09:27:33;;;;;;;8.88;3.30;;;;;;;25.74;50.39;96278.97;5114569;28;20122;-67
2023/06/14 09:30:01;;;;;;;2.80;2.60;;;;;;;25.64;48.92;96277.44;5114321;28;20047;-67
2023/06/14 09:32:28;;;;;;;3.92;3.60;;;;;;;25.72;49.02;96280.16;5114444;28;20467;-67
2023/06/14 09:34:57;;;;;;;5.25;2.95;;;;;;;25.81;49.57;96281.03;5114279;28;20039;-67
2023/06/14 09:37:31;;;;;;;6.60;3.00;;;;;;;25.86;49.05;96278.72;5114330;28;20459;-68
2023/06/14 09:39:58;;;;;;;7.75;3.25;;;;;;;25.77;48.05;96277.00;5114023;28;20051;-67
2023/06/14 09:42:28;;;;;;;6.07;3.30;;;;;;;25.68;47.96;96276.97;5114302;28;20051;-68
2023/06/14 09:44:57;;;;;;;5.75;3.13;;;;;;;25.48;47.58;96277.16;5114229;28;20135;-67
2023/06/14 09:47:24;;;;;;;9.10;3.33;;;;;;;25.36;49.15;96270.41;5114266;28;20421;-67
2023/06/14 09:49:54;;;;;;;6.00;3.08;;;;;;;25.29;49.85;96269.34;5114185;28;20066;-66
2023/06/14 09:52:23;;;;;;;4.43;2.80;;;;;;;25.21;50.64;96275.50;5114009;28;20052;-68
2023/06/14 09:54:50;;;;;;;4.57;3.00;;;;;;;24.98;49.09;96274.16;5113965;28;20040;-67
2023/06/14 09:57:21;;;;;;;5.13;3.15;;;;;;;24.90;49.59;96266.09;5114070;28;20073;-67
2023/06/14 09:59:53;;;;;;;8.40;3.25;;;;;;;24.93;50.80;96259.59;5114019;28;20105;-66
2023/06/14 10:02:26;;;;;;;4.00;3.00;;;;;;;24.99;50.64;96264.31;5113864;28;20055;-66
2023/06/14 10:05:00;;;;;;;4.97;2.63;;;;;;;25.21;50.01;96260.28;5113683;28;20131;-67
2023/06/14 10:07:33;;;;;;;3.70;2.65;;;;;;;25.43;52.82;96257.25;5113905;28;20048;-68
2023/06/14 10:10:01;;;;;;;5.18;2.97;;;;;;;25.62;51.83;96256.19;5113848;28;20079;-67
2023/06/14 10:12:28;;;;;;;7.35;3.35;;;;;;;25.54;52.20;96259.63;5113702;28;20056;-67
2023/06/14 10:14:56;;;;;;;3.65;3.05;;;;;;;25.65;53.68;96263.91;5113739;28;20553;-66
2023/06/14 10:17:34;;;;;;;5.70;3.00;;;;;;;25.43;49.19;96265.28;5113689;28;20096;-65
2023/06/14 10:20:15;;;;;;;4.95;3.55;;;;;;;25.38;52.36;96270.25;5113685;28;20506;-66
2023/06/14 10:22:50;;;;;;;4.95;2.97;;;;;;;25.54;52.31;96264.13;5113663;28;20059;-69
2023/06/14 10:25:28;;;;;;;5.32;3.60;;;;;;;25.66;49.26;96264.72;5113792;28;20075;-67
2023/06/14 10:28:05;;;;;;;6.50;3.00;;;;;;;25.84;50.55;96270.00;5113585;28;20043;-67
2023/06/14 10:30:32;;;;;;;3.80;3.00;;;;;;;25.89;50.54;96261.47;5113563;28;20059;-66
2023/06/14 10:33:07;;;;;;;3.92;3.40;;;;;;;25.95;49.33;96268.88;5113526;28;20484;-68
2023/06/14 10:35:34;;;;;;;7.63;3.28;;;;;;;25.93;50.48;96263.66;5113489;28;20044;-68
2023/06/14 10:38:10;;;;;;;4.32;3.05;;;;;;;25.97;50.23;96269.53;5113467;28;20047;-66
2023/06/14 10:40:38;;;;;;;3.47;3.17;;;;;;;25.98;50.19;96263.19;5113269;28;20130;-65
2023/06/14 10:43:24;;;;;;;6.10;3.20;;;;;;;25.93;51.37;96263.66;5113481;28;20131;-67
2023/06/14 10:46:18;;;;;;;3.35;2.83;;;;;;;25.90;50.22;96260.47;5113510;28;20097;-67
2023/06/14 10:48:46;;;;;;;4.20;3.08;;;;;;;25.86;49.14;96263.47;5113356;28;20507;-66
2023/06/14 10:51:21;;;;;;;3.63;2.85;;;;;;;25.79;51.11;96261.63;5113138;28;20098;-67
2023/06/14 10:53:51;;;;;;;10.43;3.53;;;;;;;25.73;51.03;96265.75;5113359;28;20077;-67
2023/06/14 10:56:31;;;;;;;9.95;3.17;;;;;;;25.66;50.89;96262.91;5113334;28;20054;-67
2023/06/14 10:58:58;;;;;;;;;;;;;;;25.64;51.52;96261.38;5113733;28;20047;-67
2023/06/14 11:01:37;;;;;;;7.00;3.00;;;;;;;25.52;51.03;96260.78;5113368;28;19973;-66
2023/06/14 11:04:11;;;;;;;6.38;3.13;;;;;;;25.48;51.17;96253.06;5113322;28;20044;-66
2023/06/14 11:06:48;;;;;;;5.72;3.13;;;;;;;25.48;52.54;96249.56;5113338;28;20043;-68
2023/06/14 11:09:53;;;;;;;5.85;3.10;;;;;;;25.47;54.74;96256.72;5113146;28;20044;-67
2023/06/14 11:12:23;;;;;;;5.57;3.15;;;;;;;25.47;57.97;96258.59;5113130;28;20461;-66
2023/06/14 11:14:50;;;;;;;3.88;3.50;;;;;;;25.42;59.63;96255.53;5113332;28;20039;-66
2023/06/14 11:17:17;;;;;;;4.30;3.78;;;;;;;25.43;60.53;96251.88;5115336;28;20047;-66
2023/06/14 11:19:45;;;;;;;3.40;3.10;;;;;;;25.42;58.02;96252.84;5117038;28;20481;-68
2023/06/14 11:22:14;;;;;;;4.60;3.70;;;;;;;25.33;55.64;96246.63;5116999;28;20461;-66
2023/06/14 11:24:44;;;;;;;3.50;3.20;;;;;;;25.36;56.24;96249.00;5116854;28;20047;-69
2023/06/14 11:27:11;;;;;;;4.63;3.20;;;;;;;25.21;53.87;96244.22;5116922;28;20047;-67
2023/06/14 11:29:38;;;;;;;3.38;3.08;;;;;;;25.24;54.58;96251.09;5116751;28;20494;-67
2023/06/14 11:32:12;;;;;;;3.75;3.35;;;;;;;25.39;55.80;96254.03;5116742;28;20086;-67
2023/06/14 11:34:39;;;;;;;8.45;3.38;;;;;;;25.54;52.78;96240.03;5116649;28;20083;-67
2023/06/14 11:37:06;;;;;;;6.18;3.20;;;;;;;25.71;52.46;96246.34;5116732;28;20548;-67
2023/06/14 11:39:33;;;;;;;4.55;2.95;;;;;;;26.01;54.55;96243.25;5116375;28;20050;-67
2023/06/14 11:42:03;;;;;;;3.83;2.80;;;;;;;26.41;51.51;96244.38;5116577;28;20142;-68
2023/06/14 11:44:30;;;;;;;7.10;3.33;;;;;;;26.85;48.51;96228.97;5116567;28;20408;-67
2023/06/14 11:46:57;;;;;;;6.63;3.10;;;;;;;27.17;47.30;96235.31;5116688;28;20503;-66
2023/06/14 11:49:27;;;;;;;8.90;3.30;;;;;;;27.42;44.78;96237.94;5116388;28;20074;-66
2023/06/14 11:51:54;;;;;;;5.15;2.90;;;;;;;26.95;44.22;96234.16;5116348;28;20048;-68